sensor_id;sensor_type;location;lat;lon;timestamp;P1;durP1;ratioP1;P2;durP2;ratioP2
669;SDS011;317;48.758;9.302;2022-09-17T00:02:14;1.77;;;0.83;;
669;SDS011;317;48.758;9.302;2022-09-17T00:04:41;0.93;;;0.83;;
669;SDS011;317;48.758;9.302;2022-09-17T00:07:08;0.93;;;0.67;;
669;SDS011;317;48.758;9.302;2022-09-17T00:09:34;1.60;;;0.63;;
669;SDS011;317;48.758;9.302;2022-09-17T00:12:01;0.80;;;0.57;;
669;SDS011;317;48.758;9.302;2022-09-17T00:14:29;1.70;;;0.90;;
669;SDS011;317;48.758;9.302;2022-09-17T00:16:55;1.10;;;0.70;;
669;SDS011;317;48.758;9.302;2022-09-17T00:19:23;2.97;;;1.30;;
669;SDS011;317;48.758;9.302;2022-09-17T00:21:50;1.20;;;1.10;;
669;SDS011;317;48.758;9.302;2022-09-17T00:24:17;1.53;;;0.80;;
669;SDS011;317;48.758;9.302;2022-09-17T00:26:45;2.50;;;1.00;;
669;SDS011;317;48.758;9.302;2022-09-17T00:29:12;1.00;;;0.90;;
669;SDS011;317;48.758;9.302;2022-09-17T00:31:39;1.10;;;0.90;;
669;SDS011;317;48.758;9.302;2022-09-17T00:34:06;1.60;;;0.60;;
669;SDS011;317;48.758;9.302;2022-09-17T00:36:35;0.77;;;0.77;;
669;SDS011;317;48.758;9.302;2022-09-17T00:39:02;1.70;;;1.00;;
669;SDS011;317;48.758;9.302;2022-09-17T00:41:31;1.40;;;1.17;;
669;SDS011;317;48.758;9.302;2022-09-17T00:43:59;2.97;;;1.00;;
669;SDS011;317;48.758;9.302;2022-09-17T00:46:47;2.03;;;0.80;;
669;SDS011;317;48.758;9.302;2022-09-17T00:49:15;1.20;;;0.67;;
669;SDS011;317;48.758;9.302;2022-09-17T00:51:48;1.07;;;0.67;;
669;SDS011;317;48.758;9.302;2022-09-17T00:54:21;1.70;;;1.30;;
669;SDS011;317;48.758;9.302;2022-09-17T00:56:50;1.60;;;1.20;;
669;SDS011;317;48.758;9.302;2022-09-17T00:59:17;2.23;;;0.77;;
669;SDS011;317;48.758;9.302;2022-09-17T01:01:46;2.30;;;0.93;;
669;SDS011;317;48.758;9.302;2022-09-17T01:04:14;1.63;;;1.00;;
669;SDS011;317;48.758;9.302;2022-09-17T01:06:43;3.73;;;0.80;;
669;SDS011;317;48.758;9.302;2022-09-17T01:09:21;3.00;;;1.00;;
669;SDS011;317;48.758;9.302;2022-09-17T01:12:11;4.43;;;0.90;;
669;SDS011;317;48.758;9.302;2022-09-17T01:14:52;4.00;;;1.27;;
669;SDS011;317;48.758;9.302;2022-09-17T01:17:29;1.60;;;0.70;;
669;SDS011;317;48.758;9.302;2022-09-17T01:23:24;2.00;;;1.10;;
669;SDS011;317;48.758;9.302;2022-09-17T01:26:17;3.10;;;0.93;;
669;SDS011;317;48.758;9.302;2022-09-17T01:29:07;2.70;;;1.03;;
669;SDS011;317;48.758;9.302;2022-09-17T01:31:45;2.40;;;1.77;;
669;SDS011;317;48.758;9.302;2022-09-17T01:34:19;1.37;;;1.00;;
669;SDS011;317;48.758;9.302;2022-09-17T01:36:57;2.20;;;1.07;;
669;SDS011;317;48.758;9.302;2022-09-17T01:39:31;2.10;;;0.90;;
669;SDS011;317;48.758;9.302;2022-09-17T01:42:06;2.13;;;1.07;;
669;SDS011;317;48.758;9.302;2022-09-17T01:44:41;3.20;;;1.27;;
669;SDS011;317;48.758;9.302;2022-09-17T01:47:18;2.23;;;1.00;;
669;SDS011;317;48.758;9.302;2022-09-17T01:49:48;3.47;;;1.10;;
669;SDS011;317;48.758;9.302;2022-09-17T01:52:17;1.13;;;0.93;;
669;SDS011;317;48.758;9.302;2022-09-17T01:54:46;1.20;;;0.90;;
669;SDS011;317;48.758;9.302;2022-09-17T01:57:17;3.00;;;1.20;;
669;SDS011;317;48.758;9.302;2022-09-17T01:59:48;2.20;;;0.90;;
669;SDS011;317;48.758;9.302;2022-09-17T02:02:22;1.40;;;0.90;;
669;SDS011;317;48.758;9.302;2022-09-17T02:04:54;1.70;;;1.33;;
669;SDS011;317;48.758;9.302;2022-09-17T02:07:24;2.60;;;1.07;;
669;SDS011;317;48.758;9.302;2022-09-17T02:09:53;3.90;;;2.00;;
669;SDS011;317;48.758;9.302;2022-09-17T02:12:26;1.00;;;0.80;;
669;SDS011;317;48.758;9.302;2022-09-17T02:14:57;2.40;;;1.13;;
669;SDS011;317;48.758;9.302;2022-09-17T02:17:30;2.03;;;1.10;;
669;SDS011;317;48.758;9.302;2022-09-17T02:20:00;3.87;;;1.00;;
669;SDS011;317;48.758;9.302;2022-09-17T02:22:29;3.10;;;1.00;;
669;SDS011;317;48.758;9.302;2022-09-17T02:25:03;1.50;;;1.20;;
669;SDS011;317;48.758;9.302;2022-09-17T02:27:35;3.67;;;1.40;;
669;SDS011;317;48.758;9.302;2022-09-17T02:30:10;2.17;;;1.20;;
669;SDS011;317;48.758;9.302;2022-09-17T02:32:38;2.23;;;1.10;;
669;SDS011;317;48.758;9.302;2022-09-17T02:35:06;1.73;;;1.10;;
669;SDS011;317;48.758;9.302;2022-09-17T02:37:34;4.83;;;1.50;;
669;SDS011;317;48.758;9.302;2022-09-17T02:40:00;1.50;;;1.13;;
669;SDS011;317;48.758;9.302;2022-09-17T02:42:29;2.50;;;1.03;;
669;SDS011;317;48.758;9.302;2022-09-17T02:45:03;2.37;;;1.13;;
669;SDS011;317;48.758;9.302;2022-09-17T02:50:34;3.63;;;1.43;;
669;SDS011;317;48.758;9.302;2022-09-17T02:53:14;1.27;;;1.00;;
669;SDS011;317;48.758;9.302;2022-09-17T02:55:55;2.87;;;1.33;;
669;SDS011;317;48.758;9.302;2022-09-17T02:58:29;8.00;;;1.50;;
669;SDS011;317;48.758;9.302;2022-09-17T03:01:03;2.53;;;1.20;;
669;SDS011;317;48.758;9.302;2022-09-17T03:03:35;1.60;;;1.50;;
669;SDS011;317;48.758;9.302;2022-09-17T03:06:05;4.27;;;1.30;;
669;SDS011;317;48.758;9.302;2022-09-17T03:08:33;4.83;;;1.40;;
669;SDS011;317;48.758;9.302;2022-09-17T03:11:02;3.40;;;1.43;;
669;SDS011;317;48.758;9.302;2022-09-17T03:13:29;1.83;;;1.00;;
669;SDS011;317;48.758;9.302;2022-09-17T03:15:57;1.70;;;1.13;;
669;SDS011;317;48.758;9.302;2022-09-17T03:18:24;3.60;;;1.57;;
669;SDS011;317;48.758;9.302;2022-09-17T03:20:52;4.33;;;1.60;;
669;SDS011;317;48.758;9.302;2022-09-17T03:23:18;3.93;;;1.50;;
669;SDS011;317;48.758;9.302;2022-09-17T03:25:45;2.17;;;1.10;;
669;SDS011;317;48.758;9.302;2022-09-17T03:28:13;4.00;;;1.60;;
669;SDS011;317;48.758;9.302;2022-09-17T03:30:40;3.43;;;1.47;;
669;SDS011;317;48.758;9.302;2022-09-17T03:33:07;4.23;;;1.63;;
669;SDS011;317;48.758;9.302;2022-09-17T03:35:34;2.00;;;1.20;;
669;SDS011;317;48.758;9.302;2022-09-17T03:38:02;2.73;;;2.27;;
669;SDS011;317;48.758;9.302;2022-09-17T03:40:29;2.97;;;2.10;;
669;SDS011;317;48.758;9.302;2022-09-17T03:42:56;6.30;;;1.40;;
669;SDS011;317;48.758;9.302;2022-09-17T03:45:22;6.90;;;2.87;;
669;SDS011;317;48.758;9.302;2022-09-17T03:47:49;2.10;;;1.40;;
669;SDS011;317;48.758;9.302;2022-09-17T03:50:16;5.73;;;1.80;;
669;SDS011;317;48.758;9.302;2022-09-17T03:52:43;3.23;;;1.53;;
669;SDS011;317;48.758;9.302;2022-09-17T03:55:11;2.30;;;1.53;;
669;SDS011;317;48.758;9.302;2022-09-17T03:57:37;3.80;;;2.00;;
669;SDS011;317;48.758;9.302;2022-09-17T04:00:04;3.10;;;1.50;;
669;SDS011;317;48.758;9.302;2022-09-17T04:02:32;2.87;;;1.13;;
669;SDS011;317;48.758;9.302;2022-09-17T04:04:59;3.90;;;1.17;;
669;SDS011;317;48.758;9.302;2022-09-17T04:07:26;4.57;;;1.30;;
669;SDS011;317;48.758;9.302;2022-09-17T04:09:52;3.80;;;1.50;;
669;SDS011;317;48.758;9.302;2022-09-17T04:12:20;3.53;;;1.47;;
669;SDS011;317;48.758;9.302;2022-09-17T04:14:47;2.17;;;1.50;;
669;SDS011;317;48.758;9.302;2022-09-17T04:17:14;6.50;;;2.27;;
669;SDS011;317;48.758;9.302;2022-09-17T04:19:42;4.60;;;1.87;;
669;SDS011;317;48.758;9.302;2022-09-17T04:22:09;4.53;;;1.60;;
669;SDS011;317;48.758;9.302;2022-09-17T04:24:35;4.53;;;1.40;;
669;SDS011;317;48.758;9.302;2022-09-17T04:27:02;5.93;;;1.80;;
669;SDS011;317;48.758;9.302;2022-09-17T04:29:30;3.00;;;1.70;;
669;SDS011;317;48.758;9.302;2022-09-17T04:31:57;3.80;;;1.53;;
669;SDS011;317;48.758;9.302;2022-09-17T04:34:24;6.70;;;1.57;;
669;SDS011;317;48.758;9.302;2022-09-17T04:36:50;2.10;;;1.50;;
669;SDS011;317;48.758;9.302;2022-09-17T04:39:17;3.47;;;1.57;;
669;SDS011;317;48.758;9.302;2022-09-17T04:41:44;3.80;;;1.40;;
669;SDS011;317;48.758;9.302;2022-09-17T04:44:11;2.60;;;1.23;;
669;SDS011;317;48.758;9.302;2022-09-17T04:46:39;8.83;;;1.30;;
669;SDS011;317;48.758;9.302;2022-09-17T04:49:05;4.80;;;1.47;;
669;SDS011;317;48.758;9.302;2022-09-17T04:51:32;2.87;;;1.33;;
669;SDS011;317;48.758;9.302;2022-09-17T04:53:59;2.50;;;1.60;;
669;SDS011;317;48.758;9.302;2022-09-17T04:56:26;4.50;;;2.50;;
669;SDS011;317;48.758;9.302;2022-09-17T04:58:53;2.67;;;1.47;;
669;SDS011;317;48.758;9.302;2022-09-17T05:01:19;3.73;;;1.50;;
669;SDS011;317;48.758;9.302;2022-09-17T05:03:47;4.03;;;1.73;;
669;SDS011;317;48.758;9.302;2022-09-17T05:06:14;4.63;;;1.53;;
669;SDS011;317;48.758;9.302;2022-09-17T05:08:41;4.83;;;1.53;;
669;SDS011;317;48.758;9.302;2022-09-17T05:11:08;5.00;;;1.60;;
669;SDS011;317;48.758;9.302;2022-09-17T05:13:35;3.60;;;1.50;;
669;SDS011;317;48.758;9.302;2022-09-17T05:16:01;3.57;;;1.40;;
669;SDS011;317;48.758;9.302;2022-09-17T05:18:28;4.50;;;1.60;;
669;SDS011;317;48.758;9.302;2022-09-17T05:20:56;4.30;;;1.90;;
669;SDS011;317;48.758;9.302;2022-09-17T05:23:23;3.23;;;1.47;;
669;SDS011;317;48.758;9.302;2022-09-17T05:25:50;6.73;;;2.00;;
669;SDS011;317;48.758;9.302;2022-09-17T05:28:17;4.37;;;1.50;;
669;SDS011;317;48.758;9.302;2022-09-17T05:30:43;5.50;;;2.20;;
669;SDS011;317;48.758;9.302;2022-09-17T05:33:10;4.30;;;1.30;;
669;SDS011;317;48.758;9.302;2022-09-17T05:35:37;3.73;;;1.83;;
669;SDS011;317;48.758;9.302;2022-09-17T05:38:06;5.67;;;1.50;;
669;SDS011;317;48.758;9.302;2022-09-17T05:40:32;6.17;;;2.27;;
669;SDS011;317;48.758;9.302;2022-09-17T05:42:59;6.40;;;1.80;;
669;SDS011;317;48.758;9.302;2022-09-17T05:45:27;3.50;;;1.47;;
669;SDS011;317;48.758;9.302;2022-09-17T05:47:54;4.07;;;1.23;;
669;SDS011;317;48.758;9.302;2022-09-17T05:50:21;6.00;;;1.60;;
669;SDS011;317;48.758;9.302;2022-09-17T05:52:48;6.63;;;2.17;;
669;SDS011;317;48.758;9.302;2022-09-17T05:55:17;5.07;;;1.80;;
669;SDS011;317;48.758;9.302;2022-09-17T05:57:44;2.67;;;1.47;;
669;SDS011;317;48.758;9.302;2022-09-17T06:00:11;5.20;;;1.60;;
669;SDS011;317;48.758;9.302;2022-09-17T06:02:39;7.70;;;1.63;;
669;SDS011;317;48.758;9.302;2022-09-17T06:05:06;4.23;;;2.60;;
669;SDS011;317;48.758;9.302;2022-09-17T06:07:33;5.70;;;2.13;;
669;SDS011;317;48.758;9.302;2022-09-17T06:10:00;7.03;;;1.90;;
669;SDS011;317;48.758;9.302;2022-09-17T06:12:29;4.40;;;1.90;;
669;SDS011;317;48.758;9.302;2022-09-17T06:14:55;4.80;;;1.63;;
669;SDS011;317;48.758;9.302;2022-09-17T06:17:22;3.07;;;1.60;;
669;SDS011;317;48.758;9.302;2022-09-17T06:19:49;5.37;;;1.40;;
669;SDS011;317;48.758;9.302;2022-09-17T06:22:16;5.40;;;1.87;;
669;SDS011;317;48.758;9.302;2022-09-17T06:24:44;5.20;;;1.53;;
669;SDS011;317;48.758;9.302;2022-09-17T06:27:11;4.10;;;2.07;;
669;SDS011;317;48.758;9.302;2022-09-17T06:29:39;5.73;;;1.53;;
669;SDS011;317;48.758;9.302;2022-09-17T06:32:06;5.80;;;2.57;;
669;SDS011;317;48.758;9.302;2022-09-17T06:34:34;5.77;;;1.60;;
669;SDS011;317;48.758;9.302;2022-09-17T06:37:01;5.10;;;1.90;;
669;SDS011;317;48.758;9.302;2022-09-17T06:39:28;3.17;;;1.53;;
669;SDS011;317;48.758;9.302;2022-09-17T06:41:55;3.17;;;1.43;;
669;SDS011;317;48.758;9.302;2022-09-17T06:44:22;4.73;;;1.70;;
669;SDS011;317;48.758;9.302;2022-09-17T06:46:50;8.60;;;2.17;;
669;SDS011;317;48.758;9.302;2022-09-17T06:49:17;4.80;;;1.90;;
669;SDS011;317;48.758;9.302;2022-09-17T06:51:44;3.73;;;1.77;;
669;SDS011;317;48.758;9.302;2022-09-17T06:54:11;4.73;;;1.70;;
669;SDS011;317;48.758;9.302;2022-09-17T06:56:38;3.50;;;1.97;;
669;SDS011;317;48.758;9.302;2022-09-17T06:59:04;4.20;;;1.90;;
669;SDS011;317;48.758;9.302;2022-09-17T07:01:31;5.87;;;1.93;;
669;SDS011;317;48.758;9.302;2022-09-17T07:03:59;6.47;;;1.90;;
669;SDS011;317;48.758;9.302;2022-09-17T07:06:26;9.37;;;3.47;;
669;SDS011;317;48.758;9.302;2022-09-17T07:08:53;2.90;;;2.27;;
669;SDS011;317;48.758;9.302;2022-09-17T07:11:20;4.73;;;2.10;;
669;SDS011;317;48.758;9.302;2022-09-17T07:13:47;4.73;;;1.63;;
669;SDS011;317;48.758;9.302;2022-09-17T07:16:13;5.50;;;1.70;;
669;SDS011;317;48.758;9.302;2022-09-17T07:18:40;4.40;;;1.57;;
669;SDS011;317;48.758;9.302;2022-09-17T07:21:09;4.40;;;1.73;;
669;SDS011;317;48.758;9.302;2022-09-17T07:23:36;5.03;;;2.13;;
669;SDS011;317;48.758;9.302;2022-09-17T07:26:04;4.13;;;1.93;;
669;SDS011;317;48.758;9.302;2022-09-17T07:28:33;2.30;;;1.30;;
669;SDS011;317;48.758;9.302;2022-09-17T07:31:01;3.17;;;1.70;;
669;SDS011;317;48.758;9.302;2022-09-17T07:33:30;6.97;;;1.60;;
669;SDS011;317;48.758;9.302;2022-09-17T07:35:58;2.90;;;1.43;;
669;SDS011;317;48.758;9.302;2022-09-17T07:38:28;3.20;;;1.47;;
669;SDS011;317;48.758;9.302;2022-09-17T07:40:56;6.27;;;1.63;;
669;SDS011;317;48.758;9.302;2022-09-17T07:43:25;2.37;;;1.30;;
669;SDS011;317;48.758;9.302;2022-09-17T07:45:55;2.87;;;1.53;;
669;SDS011;317;48.758;9.302;2022-09-17T07:48:22;2.93;;;1.60;;
669;SDS011;317;48.758;9.302;2022-09-17T07:50:50;3.77;;;2.23;;
669;SDS011;317;48.758;9.302;2022-09-17T07:53:17;2.07;;;1.43;;
669;SDS011;317;48.758;9.302;2022-09-17T07:55:51;2.70;;;1.60;;
669;SDS011;317;48.758;9.302;2022-09-17T07:58:18;3.73;;;1.70;;
669;SDS011;317;48.758;9.302;2022-09-17T08:00:45;3.67;;;1.63;;
669;SDS011;317;48.758;9.302;2022-09-17T08:03:12;2.50;;;2.07;;
669;SDS011;317;48.758;9.302;2022-09-17T08:05:40;3.73;;;1.73;;
669;SDS011;317;48.758;9.302;2022-09-17T08:08:06;4.07;;;1.67;;
669;SDS011;317;48.758;9.302;2022-09-17T08:10:33;1.93;;;1.80;;
669;SDS011;317;48.758;9.302;2022-09-17T08:13:02;3.40;;;1.77;;
669;SDS011;317;48.758;9.302;2022-09-17T08:15:28;3.17;;;1.80;;
669;SDS011;317;48.758;9.302;2022-09-17T08:17:55;3.57;;;1.60;;
669;SDS011;317;48.758;9.302;2022-09-17T08:20:22;2.77;;;1.90;;
669;SDS011;317;48.758;9.302;2022-09-17T08:22:56;2.83;;;1.50;;
669;SDS011;317;48.758;9.302;2022-09-17T08:25:24;3.10;;;1.40;;
669;SDS011;317;48.758;9.302;2022-09-17T08:27:51;3.83;;;2.00;;
669;SDS011;317;48.758;9.302;2022-09-17T08:30:20;4.27;;;2.20;;
669;SDS011;317;48.758;9.302;2022-09-17T08:32:47;5.17;;;2.00;;
669;SDS011;317;48.758;9.302;2022-09-17T08:35:14;7.17;;;2.20;;
669;SDS011;317;48.758;9.302;2022-09-17T08:37:42;7.10;;;2.10;;
669;SDS011;317;48.758;9.302;2022-09-17T08:40:08;4.63;;;2.07;;
669;SDS011;317;48.758;9.302;2022-09-17T08:42:40;3.70;;;1.53;;
669;SDS011;317;48.758;9.302;2022-09-17T08:45:18;3.57;;;2.20;;
669;SDS011;317;48.758;9.302;2022-09-17T08:47:47;6.73;;;2.20;;
669;SDS011;317;48.758;9.302;2022-09-17T08:50:15;4.30;;;1.87;;
669;SDS011;317;48.758;9.302;2022-09-17T08:53:03;6.63;;;1.90;;
669;SDS011;317;48.758;9.302;2022-09-17T08:55:39;4.40;;;2.40;;
669;SDS011;317;48.758;9.302;2022-09-17T09:01:10;6.40;;;2.93;;
669;SDS011;317;48.758;9.302;2022-09-17T09:03:57;8.50;;;2.20;;
669;SDS011;317;48.758;9.302;2022-09-17T09:06:31;5.87;;;2.30;;
669;SDS011;317;48.758;9.302;2022-09-17T09:09:02;4.37;;;2.53;;
669;SDS011;317;48.758;9.302;2022-09-17T09:11:33;5.47;;;2.40;;
669;SDS011;317;48.758;9.302;2022-09-17T09:14:03;5.53;;;2.20;;
669;SDS011;317;48.758;9.302;2022-09-17T09:16:38;6.90;;;2.07;;
669;SDS011;317;48.758;9.302;2022-09-17T09:19:16;4.97;;;1.97;;
669;SDS011;317;48.758;9.302;2022-09-17T09:21:47;7.10;;;2.43;;
669;SDS011;317;48.758;9.302;2022-09-17T09:24:25;8.67;;;3.30;;
669;SDS011;317;48.758;9.302;2022-09-17T09:27:08;7.93;;;2.73;;
669;SDS011;317;48.758;9.302;2022-09-17T09:29:43;7.30;;;2.90;;
669;SDS011;317;48.758;9.302;2022-09-17T09:32:23;9.43;;;2.50;;
669;SDS011;317;48.758;9.302;2022-09-17T09:35:12;4.90;;;2.03;;
669;SDS011;317;48.758;9.302;2022-09-17T09:37:43;4.57;;;2.20;;
669;SDS011;317;48.758;9.302;2022-09-17T09:40:18;5.80;;;2.33;;
669;SDS011;317;48.758;9.302;2022-09-17T09:42:52;6.40;;;2.50;;
669;SDS011;317;48.758;9.302;2022-09-17T09:45:27;6.60;;;2.90;;
669;SDS011;317;48.758;9.302;2022-09-17T09:48:07;6.83;;;2.30;;
669;SDS011;317;48.758;9.302;2022-09-17T09:50:43;9.23;;;2.70;;
669;SDS011;317;48.758;9.302;2022-09-17T09:53:18;8.87;;;3.00;;
669;SDS011;317;48.758;9.302;2022-09-17T09:56:00;5.30;;;2.30;;
669;SDS011;317;48.758;9.302;2022-09-17T09:58:38;6.77;;;2.20;;
669;SDS011;317;48.758;9.302;2022-09-17T10:01:09;8.17;;;2.33;;
669;SDS011;317;48.758;9.302;2022-09-17T10:03:39;6.30;;;2.27;;
669;SDS011;317;48.758;9.302;2022-09-17T10:06:11;5.23;;;2.00;;
669;SDS011;317;48.758;9.302;2022-09-17T10:08:40;6.47;;;2.13;;
669;SDS011;317;48.758;9.302;2022-09-17T10:11:27;4.87;;;2.07;;
669;SDS011;317;48.758;9.302;2022-09-17T10:14:03;7.60;;;2.73;;
669;SDS011;317;48.758;9.302;2022-09-17T10:16:40;4.47;;;2.33;;
669;SDS011;317;48.758;9.302;2022-09-17T10:19:11;5.73;;;2.20;;
669;SDS011;317;48.758;9.302;2022-09-17T10:21:41;4.00;;;2.13;;
669;SDS011;317;48.758;9.302;2022-09-17T10:24:11;4.63;;;2.10;;
669;SDS011;317;48.758;9.302;2022-09-17T10:26:48;5.80;;;1.90;;
669;SDS011;317;48.758;9.302;2022-09-17T10:29:17;6.87;;;2.00;;
669;SDS011;317;48.758;9.302;2022-09-17T10:31:45;4.73;;;2.00;;
669;SDS011;317;48.758;9.302;2022-09-17T10:34:18;4.43;;;2.00;;
669;SDS011;317;48.758;9.302;2022-09-17T10:36:47;4.50;;;1.87;;
669;SDS011;317;48.758;9.302;2022-09-17T10:39:17;6.17;;;2.73;;
669;SDS011;317;48.758;9.302;2022-09-17T10:41:56;4.80;;;2.27;;
669;SDS011;317;48.758;9.302;2022-09-17T10:44:25;5.77;;;2.23;;
669;SDS011;317;48.758;9.302;2022-09-17T10:46:52;2.60;;;1.33;;
669;SDS011;317;48.758;9.302;2022-09-17T10:49:25;4.10;;;1.63;;
669;SDS011;317;48.758;9.302;2022-09-17T10:52:04;7.40;;;1.73;;
669;SDS011;317;48.758;9.302;2022-09-17T10:54:48;7.40;;;1.80;;
669;SDS011;317;48.758;9.302;2022-09-17T10:57:46;4.87;;;1.50;;
669;SDS011;317;48.758;9.302;2022-09-17T11:00:29;2.60;;;1.70;;
669;SDS011;317;48.758;9.302;2022-09-17T11:03:13;3.57;;;1.80;;
669;SDS011;317;48.758;9.302;2022-09-17T11:05:59;2.70;;;1.40;;
669;SDS011;317;48.758;9.302;2022-09-17T11:08:42;4.47;;;1.63;;
669;SDS011;317;48.758;9.302;2022-09-17T11:11:16;3.47;;;1.60;;
669;SDS011;317;48.758;9.302;2022-09-17T11:14:00;3.93;;;1.40;;
669;SDS011;317;48.758;9.302;2022-09-17T11:16:37;2.27;;;1.47;;
669;SDS011;317;48.758;9.302;2022-09-17T11:19:14;5.07;;;1.67;;
669;SDS011;317;48.758;9.302;2022-09-17T11:21:51;4.93;;;2.53;;
669;SDS011;317;48.758;9.302;2022-09-17T11:24:29;3.77;;;1.60;;
669;SDS011;317;48.758;9.302;2022-09-17T11:27:30;2.70;;;1.40;;
669;SDS011;317;48.758;9.302;2022-09-17T11:30:15;1.80;;;1.10;;
669;SDS011;317;48.758;9.302;2022-09-17T11:35:47;2.73;;;1.10;;
669;SDS011;317;48.758;9.302;2022-09-17T11:38:18;3.50;;;1.33;;
669;SDS011;317;48.758;9.302;2022-09-17T11:40:54;2.20;;;0.90;;
669;SDS011;317;48.758;9.302;2022-09-17T11:43:26;2.20;;;1.20;;
669;SDS011;317;48.758;9.302;2022-09-17T11:45:58;4.40;;;1.60;;
669;SDS011;317;48.758;9.302;2022-09-17T11:48:31;2.43;;;1.13;;
669;SDS011;317;48.758;9.302;2022-09-17T11:51:10;3.37;;;1.20;;
669;SDS011;317;48.758;9.302;2022-09-17T11:53:47;5.07;;;1.23;;
669;SDS011;317;48.758;9.302;2022-09-17T11:56:20;4.90;;;1.30;;
669;SDS011;317;48.758;9.302;2022-09-17T11:58:51;3.20;;;1.20;;
669;SDS011;317;48.758;9.302;2022-09-17T12:01:24;1.77;;;1.20;;
669;SDS011;317;48.758;9.302;2022-09-17T12:03:57;3.63;;;1.30;;
669;SDS011;317;48.758;9.302;2022-09-17T12:06:30;4.73;;;1.27;;
669;SDS011;317;48.758;9.302;2022-09-17T12:09:03;4.53;;;1.07;;
669;SDS011;317;48.758;9.302;2022-09-17T12:11:39;2.43;;;1.03;;
669;SDS011;317;48.758;9.302;2022-09-17T12:14:13;2.37;;;1.20;;
669;SDS011;317;48.758;9.302;2022-09-17T12:16:44;4.43;;;1.70;;
669;SDS011;317;48.758;9.302;2022-09-17T12:19:16;4.47;;;2.27;;
669;SDS011;317;48.758;9.302;2022-09-17T12:21:50;2.70;;;1.67;;
669;SDS011;317;48.758;9.302;2022-09-17T12:24:20;6.23;;;1.50;;
669;SDS011;317;48.758;9.302;2022-09-17T12:26:52;1.50;;;1.13;;
669;SDS011;317;48.758;9.302;2022-09-17T12:29:44;6.50;;;1.43;;
669;SDS011;317;48.758;9.302;2022-09-17T12:32:32;1.70;;;1.07;;
669;SDS011;317;48.758;9.302;2022-09-17T12:35:13;1.83;;;0.80;;
669;SDS011;317;48.758;9.302;2022-09-17T12:37:46;2.30;;;0.80;;
669;SDS011;317;48.758;9.302;2022-09-17T12:40:25;4.23;;;1.00;;
669;SDS011;317;48.758;9.302;2022-09-17T12:43:00;6.00;;;1.20;;
669;SDS011;317;48.758;9.302;2022-09-17T12:45:50;2.83;;;1.40;;
669;SDS011;317;48.758;9.302;2022-09-17T12:51:37;4.23;;;1.60;;
669;SDS011;317;48.758;9.302;2022-09-17T12:54:17;5.43;;;1.63;;
669;SDS011;317;48.758;9.302;2022-09-17T12:57:01;4.50;;;2.20;;
669;SDS011;317;48.758;9.302;2022-09-17T12:59:37;4.33;;;1.67;;
669;SDS011;317;48.758;9.302;2022-09-17T13:02:11;2.10;;;1.20;;
669;SDS011;317;48.758;9.302;2022-09-17T13:04:52;3.47;;;1.73;;
669;SDS011;317;48.758;9.302;2022-09-17T13:07:33;1.90;;;1.33;;
669;SDS011;317;48.758;9.302;2022-09-17T13:13:13;1.70;;;0.70;;
669;SDS011;317;48.758;9.302;2022-09-17T13:16:02;1.83;;;1.07;;
669;SDS011;317;48.758;9.302;2022-09-17T13:18:35;3.10;;;0.87;;
669;SDS011;317;48.758;9.302;2022-09-17T13:21:08;2.77;;;0.80;;
669;SDS011;317;48.758;9.302;2022-09-17T13:23:39;2.00;;;0.80;;
669;SDS011;317;48.758;9.302;2022-09-17T13:26:08;0.97;;;0.47;;
669;SDS011;317;48.758;9.302;2022-09-17T13:28:38;1.00;;;0.70;;
669;SDS011;317;48.758;9.302;2022-09-17T13:31:08;0.67;;;0.63;;
669;SDS011;317;48.758;9.302;2022-09-17T13:33:46;1.33;;;0.67;;
669;SDS011;317;48.758;9.302;2022-09-17T13:36:37;1.37;;;1.10;;
669;SDS011;317;48.758;9.302;2022-09-17T13:39:07;6.90;;;1.37;;
669;SDS011;317;48.758;9.302;2022-09-17T13:41:36;1.77;;;0.90;;
669;SDS011;317;48.758;9.302;2022-09-17T13:44:06;2.07;;;0.80;;
669;SDS011;317;48.758;9.302;2022-09-17T13:46:37;2.43;;;0.70;;
669;SDS011;317;48.758;9.302;2022-09-17T13:49:10;2.13;;;0.73;;
669;SDS011;317;48.758;9.302;2022-09-17T13:51:41;1.47;;;1.27;;
669;SDS011;317;48.758;9.302;2022-09-17T13:54:14;1.73;;;0.70;;
669;SDS011;317;48.758;9.302;2022-09-17T13:56:43;1.90;;;0.60;;
669;SDS011;317;48.758;9.302;2022-09-17T13:59:13;1.87;;;0.87;;
669;SDS011;317;48.758;9.302;2022-09-17T14:01:58;2.30;;;0.97;;
669;SDS011;317;48.758;9.302;2022-09-17T14:04:33;4.23;;;0.90;;
669;SDS011;317;48.758;9.302;2022-09-17T14:07:29;1.50;;;0.60;;
669;SDS011;317;48.758;9.302;2022-09-17T14:10:00;2.43;;;1.03;;
669;SDS011;317;48.758;9.302;2022-09-17T14:12:52;1.00;;;0.87;;
669;SDS011;317;48.758;9.302;2022-09-17T14:18:35;1.70;;;0.80;;
669;SDS011;317;48.758;9.302;2022-09-17T14:21:10;4.30;;;0.80;;
669;SDS011;317;48.758;9.302;2022-09-17T14:23:56;1.50;;;0.70;;
669;SDS011;317;48.758;9.302;2022-09-17T14:26:30;1.33;;;0.70;;
669;SDS011;317;48.758;9.302;2022-09-17T14:29:08;1.73;;;0.97;;
669;SDS011;317;48.758;9.302;2022-09-17T14:31:44;0.97;;;0.50;;
669;SDS011;317;48.758;9.302;2022-09-17T14:34:15;1.80;;;1.23;;
669;SDS011;317;48.758;9.302;2022-09-17T14:36:47;2.10;;;0.90;;
669;SDS011;317;48.758;9.302;2022-09-17T14:39:16;1.57;;;1.10;;
669;SDS011;317;48.758;9.302;2022-09-17T14:41:47;1.90;;;1.27;;
669;SDS011;317;48.758;9.302;2022-09-17T14:44:17;1.23;;;1.00;;
669;SDS011;317;48.758;9.302;2022-09-17T14:46:47;3.17;;;1.10;;
669;SDS011;317;48.758;9.302;2022-09-17T14:49:21;2.07;;;1.30;;
669;SDS011;317;48.758;9.302;2022-09-17T14:51:48;1.30;;;1.20;;
669;SDS011;317;48.758;9.302;2022-09-17T14:54:19;3.97;;;1.40;;
669;SDS011;317;48.758;9.302;2022-09-17T14:56:52;3.87;;;1.07;;
669;SDS011;317;48.758;9.302;2022-09-17T14:59:29;5.77;;;1.10;;
669;SDS011;317;48.758;9.302;2022-09-17T15:05:16;1.60;;;0.87;;
669;SDS011;317;48.758;9.302;2022-09-17T15:07:46;0.70;;;0.70;;
669;SDS011;317;48.758;9.302;2022-09-17T15:10:14;2.10;;;1.07;;
669;SDS011;317;48.758;9.302;2022-09-17T15:12:43;1.60;;;0.70;;
669;SDS011;317;48.758;9.302;2022-09-17T15:15:14;4.90;;;1.10;;
669;SDS011;317;48.758;9.302;2022-09-17T15:17:44;3.50;;;1.07;;
669;SDS011;317;48.758;9.302;2022-09-17T15:20:15;1.90;;;1.27;;
669;SDS011;317;48.758;9.302;2022-09-17T15:22:46;1.73;;;1.10;;
669;SDS011;317;48.758;9.302;2022-09-17T15:25:19;3.13;;;1.00;;
669;SDS011;317;48.758;9.302;2022-09-17T15:27:50;3.47;;;1.07;;
669;SDS011;317;48.758;9.302;2022-09-17T15:30:20;6.10;;;1.50;;
669;SDS011;317;48.758;9.302;2022-09-17T15:32:48;3.37;;;1.10;;
669;SDS011;317;48.758;9.302;2022-09-17T15:35:20;1.93;;;1.10;;
669;SDS011;317;48.758;9.302;2022-09-17T15:37:50;3.20;;;1.40;;
669;SDS011;317;48.758;9.302;2022-09-17T15:40:26;0.90;;;0.80;;
669;SDS011;317;48.758;9.302;2022-09-17T15:42:58;1.90;;;0.80;;
669;SDS011;317;48.758;9.302;2022-09-17T15:45:30;2.23;;;1.07;;
669;SDS011;317;48.758;9.302;2022-09-17T15:48:01;2.70;;;1.20;;
669;SDS011;317;48.758;9.302;2022-09-17T15:50:52;2.10;;;1.33;;
669;SDS011;317;48.758;9.302;2022-09-17T15:53:20;3.33;;;1.40;;
669;SDS011;317;48.758;9.302;2022-09-17T15:55:57;3.60;;;1.50;;
669;SDS011;317;48.758;9.302;2022-09-17T15:58:28;2.53;;;1.20;;
669;SDS011;317;48.758;9.302;2022-09-17T16:04:15;2.47;;;1.30;;
669;SDS011;317;48.758;9.302;2022-09-17T16:07:00;5.13;;;1.20;;
669;SDS011;317;48.758;9.302;2022-09-17T16:09:46;1.57;;;1.10;;
669;SDS011;317;48.758;9.302;2022-09-17T16:12:15;1.30;;;0.80;;
669;SDS011;317;48.758;9.302;2022-09-17T16:14:47;6.10;;;1.17;;
669;SDS011;317;48.758;9.302;2022-09-17T16:17:26;2.37;;;1.30;;
669;SDS011;317;48.758;9.302;2022-09-17T16:20:05;4.53;;;1.90;;
669;SDS011;317;48.758;9.302;2022-09-17T16:22:35;0.93;;;0.70;;
669;SDS011;317;48.758;9.302;2022-09-17T16:25:02;3.60;;;1.07;;
669;SDS011;317;48.758;9.302;2022-09-17T16:27:30;1.70;;;1.20;;
669;SDS011;317;48.758;9.302;2022-09-17T16:30:01;2.87;;;1.33;;
669;SDS011;317;48.758;9.302;2022-09-17T16:32:29;1.90;;;1.03;;
669;SDS011;317;48.758;9.302;2022-09-17T16:34:56;2.20;;;0.90;;
669;SDS011;317;48.758;9.302;2022-09-17T16:37:23;2.23;;;1.63;;
669;SDS011;317;48.758;9.302;2022-09-17T16:39:51;0.80;;;0.63;;
669;SDS011;317;48.758;9.302;2022-09-17T16:42:18;1.10;;;0.80;;